sensor_id;sensor_type;location;lat;lon;timestamp;pressure;altitude;pressure_sealevel;temperature;humidity
3132;BME280;62090;52.330;9.104;2023-09-19T00:01:14;100039.16;;;18.05;100.00
3132;BME280;62090;52.330;9.104;2023-09-19T00:03:47;99963.41;;;17.63;100.00
3132;BME280;62090;52.330;9.104;2023-09-19T00:06:17;100039.94;;;18.09;100.00
3132;BME280;62090;52.330;9.104;2023-09-19T00:08:47;100035.59;;;18.12;100.00
3132;BME280;62090;52.330;9.104;2023-09-19T00:11:19;100036.50;;;18.10;100.00
3132;BME280;62090;52.330;9.104;2023-09-19T00:13:53;100044.22;;;18.10;100.00
3132;BME280;62090;52.330;9.104;2023-09-19T00:16:23;100047.75;;;18.04;100.00
3132;BME280;62090;52.330;9.104;2023-09-19T00:18:54;100050.25;;;18.09;100.00
3132;BME280;62090;52.330;9.104;2023-09-19T00:21:25;100038.38;;;18.02;100.00
3132;BME280;62090;52.330;9.104;2023-09-19T00:23:55;100044.50;;;17.95;100.00
3132;BME280;62090;52.330;9.104;2023-09-19T00:26:27;100052.22;;;17.95;100.00
3132;BME280;62090;52.330;9.104;2023-09-19T00:28:57;100050.66;;;17.86;100.00
3132;BME280;62090;52.330;9.104;2023-09-19T00:31:35;100054.19;;;17.81;100.00
3132;BME280;62090;52.330;9.104;2023-09-19T00:34:06;100072.84;;;17.95;100.00
3132;BME280;62090;52.330;9.104;2023-09-19T00:36:38;100062.44;;;18.01;100.00
3132;BME280;62090;52.330;9.104;2023-09-19T00:39:10;100069.25;;;18.05;100.00
3132;BME280;62090;52.330;9.104;2023-09-19T00:41:42;100070.78;;;18.15;100.00
3132;BME280;62090;52.330;9.104;2023-09-19T00:44:12;100080.16;;;18.19;100.00
3132;BME280;62090;52.330;9.104;2023-09-19T00:46:42;100080.06;;;18.25;100.00
3132;BME280;62090;52.330;9.104;2023-09-19T00:49:14;100069.94;;;18.14;100.00
3132;BME280;62090;52.330;9.104;2023-09-19T00:51:44;100082.59;;;18.28;100.00
3132;BME280;62090;52.330;9.104;2023-09-19T00:54:15;100086.81;;;18.34;100.00
3132;BME280;62090;52.330;9.104;2023-09-19T00:56:49;100085.91;;;18.35;100.00
3132;BME280;62090;52.330;9.104;2023-09-19T00:59:21;100049.47;;;18.07;100.00
3132;BME280;62090;52.330;9.104;2023-09-19T01:01:51;100078.31;;;18.29;100.00
3132;BME280;62090;52.330;9.104;2023-09-19T01:04:23;100088.56;;;18.30;100.00
3132;BME280;62090;52.330;9.104;2023-09-19T01:06:54;100090.34;;;18.28;100.00
3132;BME280;62090;52.330;9.104;2023-09-19T01:09:25;100089.41;;;18.31;100.00
3132;BME280;62090;52.330;9.104;2023-09-19T01:12:01;100095.53;;;18.27;100.00
3132;BME280;62090;52.330;9.104;2023-09-19T01:14:38;100062.28;;;18.10;100.00
3132;BME280;62090;52.330;9.104;2023-09-19T01:17:17;100026.63;;;17.86;100.00
3132;BME280;62090;52.330;9.104;2023-09-19T01:20:20;100105.75;;;18.31;100.00
3132;BME280;62090;52.330;9.104;2023-09-19T01:23:00;100055.75;;;17.91;100.00
3132;BME280;62090;52.330;9.104;2023-09-19T01:26:05;100102.50;;;18.20;100.00
3132;BME280;62090;52.330;9.104;2023-09-19T01:28:52;100108.53;;;18.19;100.00
3132;BME280;62090;52.330;9.104;2023-09-19T01:31:29;100117.09;;;18.23;100.00
3132;BME280;62090;52.330;9.104;2023-09-19T01:34:03;100116.31;;;18.18;100.00
3132;BME280;62090;52.330;9.104;2023-09-19T01:36:35;100115.41;;;18.20;100.00
3132;BME280;62090;52.330;9.104;2023-09-19T01:39:08;100097.69;;;18.00;100.00
3132;BME280;62090;52.330;9.104;2023-09-19T01:41:58;100117.28;;;18.12;100.00
3132;BME280;62090;52.330;9.104;2023-09-19T01:44:37;100119.94;;;18.07;100.00
3132;BME280;62090;52.330;9.104;2023-09-19T01:47:18;100115.72;;;18.02;100.00
3132;BME280;62090;52.330;9.104;2023-09-19T01:49:55;100123.31;;;18.09;100.00
3132;BME280;62090;52.330;9.104;2023-09-19T01:52:31;100127.59;;;18.12;100.00
3132;BME280;62090;52.330;9.104;2023-09-19T01:55:09;100129.34;;;18.08;100.00
3132;BME280;62090;52.330;9.104;2023-09-19T01:57:48;100116.53;;;18.04;100.00
3132;BME280;62090;52.330;9.104;2023-09-19T02:00:20;100135.31;;;18.13;100.00
3132;BME280;62090;52.330;9.104;2023-09-19T02:02:56;100143.81;;;18.19;100.00
3132;BME280;62090;52.330;9.104;2023-09-19T02:05:28;100141.25;;;18.17;100.00
3132;BME280;62090;52.330;9.104;2023-09-19T02:08:00;100148.22;;;18.12;100.00
3132;BME280;62090;52.330;9.104;2023-09-19T02:10:30;100143.91;;;18.12;100.00
3132;BME280;62090;52.330;9.104;2023-09-19T02:13:01;100119.41;;;17.86;100.00
3132;BME280;62090;52.330;9.104;2023-09-19T02:15:31;100150.72;;;18.15;100.00
3132;BME280;62090;52.330;9.104;2023-09-19T02:18:06;100160.22;;;18.13;100.00
3132;BME280;62090;52.330;9.104;2023-09-19T02:20:36;100157.69;;;18.08;100.00
3132;BME280;62090;52.330;9.104;2023-09-19T02:23:06;100172.44;;;18.02;100.00
3132;BME280;62090;52.330;9.104;2023-09-19T02:25:37;100174.25;;;17.94;100.00
3132;BME280;62090;52.330;9.104;2023-09-19T02:28:08;100118.88;;;17.62;100.00
3132;BME280;62090;52.330;9.104;2023-09-19T02:30:38;100178.59;;;17.92;100.00
3132;BME280;62090;52.330;9.104;2023-09-19T02:33:10;100168.44;;;17.81;100.00
3132;BME280;62090;52.330;9.104;2023-09-19T02:35:40;100166.56;;;17.92;100.00
3132;BME280;62090;52.330;9.104;2023-09-19T02:38:11;100177.72;;;17.93;100.00
3132;BME280;62090;52.330;9.104;2023-09-19T02:40:48;100175.19;;;17.88;99.42
3132;BME280;62090;52.330;9.104;2023-09-19T02:43:18;100182.09;;;17.88;98.15
3132;BME280;62090;52.330;9.104;2023-09-19T02:45:49;100125.94;;;17.48;98.05
3132;BME280;62090;52.330;9.104;2023-09-19T02:48:23;100184.78;;;17.80;96.70
3132;BME280;62090;52.330;9.104;2023-09-19T02:50:53;100185.66;;;17.79;96.66
3132;BME280;62090;52.330;9.104;2023-09-19T02:53:23;100183.06;;;17.81;96.15
3132;BME280;62090;52.330;9.104;2023-09-19T02:55:53;100191.53;;;17.87;96.10
3132;BME280;62090;52.330;9.104;2023-09-19T02:58:23;100185.59;;;17.82;95.52
3132;BME280;62090;52.330;9.104;2023-09-19T03:00:55;100159.31;;;17.60;95.25
3132;BME280;62090;52.330;9.104;2023-09-19T03:03:27;100144.81;;;17.47;95.20
3132;BME280;62090;52.330;9.104;2023-09-19T03:05:58;100190.00;;;17.76;94.98
3132;BME280;62090;52.330;9.104;2023-09-19T03:08:31;100202.84;;;17.77;95.67
3132;BME280;62090;52.330;9.104;2023-09-19T03:11:04;100197.63;;;17.83;95.47
3132;BME280;62090;52.330;9.104;2023-09-19T03:13:36;100193.31;;;17.84;95.57
3132;BME280;62090;52.330;9.104;2023-09-19T03:16:07;100187.34;;;17.82;95.08
3132;BME280;62090;52.330;9.104;2023-09-19T03:18:40;100216.38;;;17.93;95.87
3132;BME280;62090;52.330;9.104;2023-09-19T03:21:10;100206.13;;;17.88;94.51
3132;BME280;62090;52.330;9.104;2023-09-19T03:23:41;100207.06;;;17.84;95.61
3132;BME280;62090;52.330;9.104;2023-09-19T03:26:12;100207.16;;;17.77;96.21
3132;BME280;62090;52.330;9.104;2023-09-19T03:28:43;100206.34;;;17.75;96.92
3132;BME280;62090;52.330;9.104;2023-09-19T03:31:14;100202.00;;;17.77;95.57
3132;BME280;62090;52.330;9.104;2023-09-19T03:33:48;100211.41;;;17.81;93.78
3132;BME280;62090;52.330;9.104;2023-09-19T03:36:18;100205.47;;;17.76;92.90
3132;BME280;62090;52.330;9.104;2023-09-19T03:38:48;100208.19;;;17.65;94.02
3132;BME280;62090;52.330;9.104;2023-09-19T03:41:18;100204.72;;;17.66;94.59
3132;BME280;62090;52.330;9.104;2023-09-19T03:43:48;100211.50;;;17.73;93.91
3132;BME280;62090;52.330;9.104;2023-09-19T03:46:19;100210.59;;;17.77;93.73
3132;BME280;62090;52.330;9.104;2023-09-19T03:48:51;100206.41;;;17.70;93.86
3132;BME280;62090;52.330;9.104;2023-09-19T03:51:22;100203.78;;;17.71;94.27
3132;BME280;62090;52.330;9.104;2023-09-19T03:53:52;100207.28;;;17.67;93.92
3132;BME280;62090;52.330;9.104;2023-09-19T03:56:22;100204.72;;;17.66;93.98
3132;BME280;62090;52.330;9.104;2023-09-19T03:58:51;100210.78;;;17.63;94.84
3132;BME280;62090;52.330;9.104;2023-09-19T04:01:22;100203.09;;;17.60;94.65
3132;BME280;62090;52.330;9.104;2023-09-19T04:03:55;100204.84;;;17.55;93.81
3132;BME280;62090;52.330;9.104;2023-09-19T04:06:25;100183.69;;;17.29;92.81
3132;BME280;62090;52.330;9.104;2023-09-19T04:08:55;100215.28;;;17.45;93.30
3132;BME280;62090;52.330;9.104;2023-09-19T04:11:24;100217.88;;;17.43;94.00
3132;BME280;62090;52.330;9.104;2023-09-19T04:13:55;100157.34;;;17.07;92.86
3132;BME280;62090;52.330;9.104;2023-09-19T04:16:25;100169.31;;;17.10;93.91
3132;BME280;62090;52.330;9.104;2023-09-19T04:18:58;100218.78;;;17.38;93.29
3132;BME280;62090;52.330;9.104;2023-09-19T04:21:28;100216.22;;;17.36;94.28
3132;BME280;62090;52.330;9.104;2023-09-19T04:23:59;100231.63;;;17.42;93.88
3132;BME280;62090;52.330;9.104;2023-09-19T04:26:28;100223.16;;;17.31;93.85
3132;BME280;62090;52.330;9.104;2023-09-19T04:28:58;100235.06;;;17.41;93.21
3132;BME280;62090;52.330;9.104;2023-09-19T04:31:30;100246.22;;;17.43;92.35
3132;BME280;62090;52.330;9.104;2023-09-19T04:34:03;100241.06;;;17.42;92.54
3132;BME280;62090;52.330;9.104;2023-09-19T04:36:37;100247.00;;;17.48;92.24
3132;BME280;62090;52.330;9.104;2023-09-19T04:39:07;100257.31;;;17.48;91.95
3132;BME280;62090;52.330;9.104;2023-09-19T04:41:37;100265.97;;;17.43;91.75
3132;BME280;62090;52.330;9.104;2023-09-19T04:44:08;100265.19;;;17.35;91.57
3132;BME280;62090;52.330;9.104;2023-09-19T04:46:39;100230.22;;;17.14;90.84
3132;BME280;62090;52.330;9.104;2023-09-19T04:49:12;100247.19;;;17.30;90.79
3132;BME280;62090;52.330;9.104;2023-09-19T04:51:42;100272.81;;;17.42;91.69
3132;BME280;62090;52.330;9.104;2023-09-19T04:54:13;100235.31;;;17.18;91.46
3132;BME280;62090;52.330;9.104;2023-09-19T04:56:45;100225.97;;;17.11;90.45
3132;BME280;62090;52.330;9.104;2023-09-19T04:59:15;100263.50;;;17.30;91.74
3132;BME280;62090;52.330;9.104;2023-09-19T05:01:45;100261.72;;;17.39;91.46
3132;BME280;62090;52.330;9.104;2023-09-19T05:04:17;100250.50;;;17.41;90.43
3132;BME280;62090;52.330;9.104;2023-09-19T05:06:47;100280.72;;;17.27;91.00
3132;BME280;62090;52.330;9.104;2023-09-19T05:09:17;100278.19;;;17.22;90.56
3132;BME280;62090;52.330;9.104;2023-09-19T05:11:47;100271.50;;;17.03;90.21
3132;BME280;62090;52.330;9.104;2023-09-19T05:14:18;100266.47;;;16.93;91.69
3132;BME280;62090;52.330;9.104;2023-09-19T05:16:49;100278.41;;;17.00;91.64
3132;BME280;62090;52.330;9.104;2023-09-19T05:19:22;100251.91;;;16.88;91.91
3132;BME280;62090;52.330;9.104;2023-09-19T05:21:52;100277.66;;;16.90;91.07
3132;BME280;62090;52.330;9.104;2023-09-19T05:24:22;100277.69;;;16.84;91.72
3132;BME280;62090;52.330;9.104;2023-09-19T05:26:53;100297.38;;;16.88;92.64
3132;BME280;62090;52.330;9.104;2023-09-19T05:29:23;100231.59;;;16.60;92.59
3132;BME280;62090;52.330;9.104;2023-09-19T05:31:53;100295.72;;;16.82;93.67
3132;BME280;62090;52.330;9.104;2023-09-19T05:34:26;100290.59;;;16.79;93.54
3132;BME280;62090;52.330;9.104;2023-09-19T05:36:57;100316.22;;;16.95;93.23
3132;BME280;62090;52.330;9.104;2023-09-19T05:39:27;100306.91;;;16.78;93.58
3132;BME280;62090;52.330;9.104;2023-09-19T05:41:57;100334.34;;;16.81;93.54
3132;BME280;62090;52.330;9.104;2023-09-19T05:44:27;100320.63;;;16.77;93.51
3132;BME280;62090;52.330;9.104;2023-09-19T05:46:57;100321.53;;;16.73;93.48
3132;BME280;62090;52.330;9.104;2023-09-19T05:49:29;100317.25;;;16.71;92.54
3132;BME280;62090;52.330;9.104;2023-09-19T05:52:00;100322.38;;;16.71;91.58
3132;BME280;62090;52.330;9.104;2023-09-19T05:54:29;100351.50;;;16.77;92.28
3132;BME280;62090;52.330;9.104;2023-09-19T05:57:04;100299.47;;;16.34;92.44
3132;BME280;62090;52.330;9.104;2023-09-19T05:59:34;100354.19;;;16.65;92.73
3132;BME280;62090;52.330;9.104;2023-09-19T06:02:04;100295.22;;;16.32;92.56
3132;BME280;62090;52.330;9.104;2023-09-19T06:04:39;100354.16;;;16.68;92.36
3132;BME280;62090;52.330;9.104;2023-09-19T06:07:11;100349.91;;;16.63;93.73
3132;BME280;62090;52.330;9.104;2023-09-19T06:09:43;100354.19;;;16.56;93.06
3132;BME280;62090;52.330;9.104;2023-09-19T06:12:13;100344.75;;;16.57;93.29
3132;BME280;62090;52.330;9.104;2023-09-19T06:14:44;100336.19;;;16.64;93.04
3132;BME280;62090;52.330;9.104;2023-09-19T06:17:15;100348.22;;;16.59;93.25
3132;BME280;62090;52.330;9.104;2023-09-19T06:19:49;100314.81;;;16.45;92.85
3132;BME280;62090;52.330;9.104;2023-09-19T06:22:19;100349.03;;;16.62;93.03
3132;BME280;62090;52.330;9.104;2023-09-19T06:24:49;100339.59;;;16.66;92.97
3132;BME280;62090;52.330;9.104;2023-09-19T06:27:20;100343.06;;;16.57;92.99
3132;BME280;62090;52.330;9.104;2023-09-19T06:29:50;100338.75;;;16.62;93.60
3132;BME280;62090;52.330;9.104;2023-09-19T06:32:26;100305.34;;;16.50;92.43
3132;BME280;62090;52.330;9.104;2023-09-19T06:34:59;100323.31;;;16.65;91.68
3132;BME280;62090;52.330;9.104;2023-09-19T06:37:30;100330.19;;;16.57;91.60
3132;BME280;62090;52.330;9.104;2023-09-19T06:40:01;100276.44;;;16.15;91.37
3132;BME280;62090;52.330;9.104;2023-09-19T06:42:32;100347.34;;;16.61;90.94
3132;BME280;62090;52.330;9.104;2023-09-19T06:45:05;100298.56;;;16.41;91.17
3132;BME280;62090;52.330;9.104;2023-09-19T06:47:35;100357.53;;;16.78;89.89
3132;BME280;62090;52.330;9.104;2023-09-19T06:50:08;100355.75;;;16.81;90.60
3132;BME280;62090;52.330;9.104;2023-09-19T06:52:40;100355.75;;;16.81;91.23
3132;BME280;62090;52.330;9.104;2023-09-19T06:55:11;100357.47;;;16.82;88.11
3132;BME280;62090;52.330;9.104;2023-09-19T06:57:43;100220.88;;;15.95;89.07
3132;BME280;62090;52.330;9.104;2023-09-19T07:00:14;100316.47;;;16.61;88.20
3132;BME280;62090;52.330;9.104;2023-09-19T07:02:54;100345.38;;;16.94;88.63
3132;BME280;62090;52.330;9.104;2023-09-19T07:05:28;100356.53;;;16.97;88.17
3132;BME280;62090;52.330;9.104;2023-09-19T07:07:59;100360.81;;;16.97;87.06
3132;BME280;62090;52.330;9.104;2023-09-19T07:10:29;100347.16;;;16.87;86.73
3132;BME280;62090;52.330;9.104;2023-09-19T07:13:01;100374.47;;;17.08;87.12
3132;BME280;62090;52.330;9.104;2023-09-19T07:15:33;100372.66;;;17.16;85.72
3132;BME280;62090;52.330;9.104;2023-09-19T07:18:06;100375.22;;;17.19;85.56
3132;BME280;62090;52.330;9.104;2023-09-19T07:20:41;100386.31;;;17.25;84.38
3132;BME280;62090;52.330;9.104;2023-09-19T07:23:12;100385.41;;;17.34;84.48
3132;BME280;62090;52.330;9.104;2023-09-19T07:25:42;100385.41;;;17.33;83.70
3132;BME280;62090;52.330;9.104;2023-09-19T07:28:13;100297.47;;;16.80;84.18
3132;BME280;62090;52.330;9.104;2023-09-19T07:30:43;100393.09;;;17.37;82.47
3132;BME280;62090;52.330;9.104;2023-09-19T07:33:13;100400.78;;;17.43;83.71
3132;BME280;62090;52.330;9.104;2023-09-19T07:35:47;100359.78;;;17.17;82.86
3132;BME280;62090;52.330;9.104;2023-09-19T07:38:17;100380.22;;;17.36;82.36
3132;BME280;62090;52.330;9.104;2023-09-19T07:40:48;100381.88;;;17.40;81.92
3132;BME280;62090;52.330;9.104;2023-09-19T07:43:18;100334.91;;;17.18;80.87
3132;BME280;62090;52.330;9.104;2023-09-19T07:45:49;100395.63;;;17.40;80.64
3132;BME280;62090;52.330;9.104;2023-09-19T07:48:19;100392.94;;;17.52;81.50
3132;BME280;62090;52.330;9.104;2023-09-19T07:50:51;100406.72;;;17.50;81.84
3132;BME280;62090;52.330;9.104;2023-09-19T07:53:21;100386.22;;;17.39;81.12
3132;BME280;62090;52.330;9.104;2023-09-19T07:55:51;100403.28;;;17.49;81.57
3132;BME280;62090;52.330;9.104;2023-09-19T07:58:22;100398.13;;;17.49;80.28
3132;BME280;62090;52.330;9.104;2023-09-19T08:00:52;100325.56;;;17.08;81.05
3132;BME280;62090;52.330;9.104;2023-09-19T08:03:22;100398.03;;;17.61;81.22
3132;BME280;62090;52.330;9.104;2023-09-19T08:05:56;100406.50;;;17.76;81.52
3132;BME280;62090;52.330;9.104;2023-09-19T08:08:26;100413.31;;;17.80;80.70
3132;BME280;62090;52.330;9.104;2023-09-19T08:10:56;100389.22;;;17.84;80.44
3132;BME280;62090;52.330;9.104;2023-09-19T08:13:30;100417.53;;;17.88;79.85
3132;BME280;62090;52.330;9.104;2023-09-19T08:16:04;100408.00;;;17.95;80.39
3132;BME280;62090;52.330;9.104;2023-09-19T08:18:46;100373.75;;;17.84;80.37
3132;BME280;62090;52.330;9.104;2023-09-19T08:21:25;100402.84;;;17.95;79.07
3132;BME280;62090;52.330;9.104;2023-09-19T08:23:57;100294.34;;;17.38;78.75
3132;BME280;62090;52.330;9.104;2023-09-19T08:26:28;100409.66;;;18.00;80.03
3132;BME280;62090;52.330;9.104;2023-09-19T08:28:58;100384.69;;;18.04;78.27
3132;BME280;62090;52.330;9.104;2023-09-19T08:31:32;100409.41;;;18.20;77.82
3132;BME280;62090;52.330;9.104;2023-09-19T08:34:03;100396.38;;;18.32;78.50
3132;BME280;62090;52.330;9.104;2023-09-19T08:36:36;100409.22;;;18.38;79.07
3132;BME280;62090;52.330;9.104;2023-09-19T08:39:08;100404.00;;;18.41;79.50
3132;BME280;62090;52.330;9.104;2023-09-19T08:41:40;100344.31;;;18.03;78.98
3132;BME280;62090;52.330;9.104;2023-09-19T08:44:18;100422.91;;;18.40;77.80
3132;BME280;62090;52.330;9.104;2023-09-19T08:46:49;100417.75;;;18.43;78.04
3132;BME280;62090;52.330;9.104;2023-09-19T08:49:33;100382.69;;;18.26;77.98
3132;BME280;62090;52.330;9.104;2023-09-19T08:52:18;100423.50;;;18.64;77.35
3132;BME280;62090;52.330;9.104;2023-09-19T08:54:51;100419.19;;;18.66;76.93
3132;BME280;62090;52.330;9.104;2023-09-19T08:57:26;100209.34;;;17.38;76.36
3132;BME280;62090;52.330;9.104;2023-09-19T09:00:01;100416.41;;;18.81;77.86
3132;BME280;62090;52.330;9.104;2023-09-19T09:02:38;100316.41;;;18.32;78.31
3132;BME280;62090;52.330;9.104;2023-09-19T09:05:09;100420.41;;;18.98;78.00
3132;BME280;62090;52.330;9.104;2023-09-19T09:07:44;100425.41;;;19.09;76.68
3132;BME280;62090;52.330;9.104;2023-09-19T09:10:15;100422.22;;;18.93;75.87
3132;BME280;62090;52.330;9.104;2023-09-19T09:12:45;100420.25;;;19.09;76.04
3132;BME280;62090;52.330;9.104;2023-09-19T09:15:20;100317.69;;;18.65;76.44
3132;BME280;62090;52.330;9.104;2023-09-19T09:17:51;100414.72;;;19.33;76.00
3132;BME280;62090;52.330;9.104;2023-09-19T09:20:25;100415.88;;;19.14;75.90
3132;BME280;62090;52.330;9.104;2023-09-19T09:22:58;100346.63;;;18.84;75.59
3132;BME280;62090;52.330;9.104;2023-09-19T09:25:49;100399.56;;;19.12;74.69
3132;BME280;62090;52.330;9.104;2023-09-19T09:28:23;100350.22;;;18.74;74.74
3132;BME280;62090;52.330;9.104;2023-09-19T09:30:55;100405.59;;;19.11;75.53
3132;BME280;62090;52.330;9.104;2023-09-19T09:33:25;100426.41;;;19.02;73.76
3132;BME280;62090;52.330;9.104;2023-09-19T09:35:57;100405.91;;;18.91;73.39
3132;BME280;62090;52.330;9.104;2023-09-19T09:38:43;100413.59;;;18.96;73.75
3132;BME280;62090;52.330;9.104;2023-09-19T09:41:15;100423.81;;;19.02;74.18
3132;BME280;62090;52.330;9.104;2023-09-19T09:43:54;100419.34;;;19.13;74.52
3132;BME280;62090;52.330;9.104;2023-09-19T09:46:26;100421.00;;;19.16;74.09
3132;BME280;62090;52.330;9.104;2023-09-19T09:49:10;100413.16;;;19.22;73.62
3132;BME280;62090;52.330;9.104;2023-09-19T09:51:49;100418.97;;;19.36;74.35
3132;BME280;62090;52.330;9.104;2023-09-19T09:54:30;100395.34;;;19.05;74.37
3132;BME280;62090;52.330;9.104;2023-09-19T09:57:05;100429.44;;;19.27;73.53
3132;BME280;62090;52.330;9.104;2023-09-19T09:59:46;100376.50;;;18.98;73.49
3132;BME280;62090;52.330;9.104;2023-09-19T10:02:17;100372.94;;;19.09;73.47
3132;BME280;62090;52.330;9.104;2023-09-19T10:04:53;100431.75;;;19.44;73.25
3132;BME280;62090;52.330;9.104;2023-09-19T10:07:37;100425.72;;;19.46;72.38
3132;BME280;62090;52.330;9.104;2023-09-19T10:10:13;100435.09;;;19.52;71.67
3132;BME280;62090;52.330;9.104;2023-09-19T10:12:49;100433.41;;;19.51;71.86
3132;BME280;62090;52.330;9.104;2023-09-19T10:15:26;100430.50;;;19.67;71.96
3132;BME280;62090;52.330;9.104;2023-09-19T10:18:00;100373.91;;;19.54;71.72
3132;BME280;62090;52.330;9.104;2023-09-19T10:20:32;100424.28;;;19.77;73.52
3132;BME280;62090;52.330;9.104;2023-09-19T10:23:06;100432.78;;;19.86;71.37
3132;BME280;62090;52.330;9.104;2023-09-19T10:25:43;100432.00;;;19.82;71.12
3132;BME280;62090;52.330;9.104;2023-09-19T10:28:15;100416.69;;;19.68;70.51
3132;BME280;62090;52.330;9.104;2023-09-19T10:30:50;100414.88;;;19.73;70.01
3132;BME280;62090;52.330;9.104;2023-09-19T10:33:22;100432.84;;;19.83;68.54
3132;BME280;62090;52.330;9.104;2023-09-19T10:35:53;100415.81;;;19.69;68.98
3132;BME280;62090;52.330;9.104;2023-09-19T10:38:25;100437.75;;;19.96;70.08
3132;BME280;62090;52.330;9.104;2023-09-19T10:40:59;100430.63;;;20.07;68.80
3132;BME280;62090;52.330;9.104;2023-09-19T10:43:32;100418.69;;;20.00;69.78
3132;BME280;62090;52.330;9.104;2023-09-19T10:46:07;100407.66;;;19.92;68.75
3132;BME280;62090;52.330;9.104;2023-09-19T10:48:39;100439.19;;;20.11;68.82
3132;BME280;62090;52.330;9.104;2023-09-19T10:51:13;100437.25;;;20.20;69.30
3132;BME280;62090;52.330;9.104;2023-09-19T10:53:49;100425.06;;;20.25;67.55
3132;BME280;62090;52.330;9.104;2023-09-19T10:56:26;100413.84;;;20.27;67.68
3132;BME280;62090;52.330;9.104;2023-09-19T10:59:07;100423.22;;;20.34;66.41
3132;BME280;62090;52.330;9.104;2023-09-19T11:01:44;100340.00;;;19.69;65.87
3132;BME280;62090;52.330;9.104;2023-09-19T11:04:23;100435.38;;;20.29;63.90
3132;BME280;62090;52.330;9.104;2023-09-19T11:07:01;100414.88;;;20.19;64.08
3132;BME280;62090;52.330;9.104;2023-09-19T11:09:50;100425.25;;;20.18;65.11
3132;BME280;62090;52.330;9.104;2023-09-19T11:12:51;100425.91;;;20.28;64.32
3132;BME280;62090;52.330;9.104;2023-09-19T11:24:31;100395.66;;;20.73;65.72
3132;BME280;62090;52.330;9.104;2023-09-19T11:27:14;100410.78;;;20.89;64.91
3132;BME280;62090;52.330;9.104;2023-09-19T11:29:47;100406.03;;;20.71;64.21
3132;BME280;62090;52.330;9.104;2023-09-19T11:41:48;100415.81;;;20.57;65.60
3132;BME280;62090;52.330;9.104;2023-09-19T11:44:34;100417.25;;;20.72;64.94
3132;BME280;62090;52.330;9.104;2023-09-19T11:47:08;100424.03;;;20.77;65.40
3132;BME280;62090;52.330;9.104;2023-09-19T11:49:40;100398.63;;;20.54;64.76
3132;BME280;62090;52.330;9.104;2023-09-19T11:52:16;100424.63;;;20.50;65.09
3132;BME280;62090;52.330;9.104;2023-09-19T11:54:54;100419.78;;;20.33;66.06
3132;BME280;62090;52.330;9.104;2023-09-19T11:57:25;100425.69;;;20.40;66.86
3132;BME280;62090;52.330;9.104;2023-09-19T11:59:57;100415.03;;;20.55;66.91
3132;BME280;62090;52.330;9.104;2023-09-19T12:02:42;100415.56;;;20.69;64.91
3132;BME280;62090;52.330;9.104;2023-09-19T12:05:16;100398.31;;;20.68;66.40
3132;BME280;62090;52.330;9.104;2023-09-19T12:07:48;100415.91;;;20.92;65.64
3132;BME280;62090;52.330;9.104;2023-09-19T12:10:18;100413.50;;;20.83;65.33
3132;BME280;62090;52.330;9.104;2023-09-19T12:12:50;100414.31;;;20.85;66.08
3132;BME280;62090;52.330;9.104;2023-09-19T12:15:23;100415.09;;;20.89;66.50
3132;BME280;62090;52.330;9.104;2023-09-19T12:17:58;100425.38;;;20.93;65.58
3132;BME280;62090;52.330;9.104;2023-09-19T12:20:42;100406.34;;;20.94;67.43
3132;BME280;62090;52.330;9.104;2023-09-19T12:23:16;100410.78;;;20.89;69.13
3132;BME280;62090;52.330;9.104;2023-09-19T12:25:46;100419.59;;;20.82;68.90
3132;BME280;62090;52.330;9.104;2023-09-19T12:28:20;100415.16;;;20.87;69.18
3132;BME280;62090;52.330;9.104;2023-09-19T12:30:52;100417.78;;;20.86;67.53
3132;BME280;62090;52.330;9.104;2023-09-19T12:33:26;100395.66;;;20.71;65.93
3132;BME280;62090;52.330;9.104;2023-09-19T12:35:56;100394.69;;;20.77;66.45
3132;BME280;62090;52.330;9.104;2023-09-19T12:38:27;100377.91;;;20.93;67.20
3132;BME280;62090;52.330;9.104;2023-09-19T12:40:59;100400.53;;;20.85;66.97
3132;BME280;62090;52.330;9.104;2023-09-19T12:43:30;100387.47;;;20.89;66.44
3132;BME280;62090;52.330;9.104;2023-09-19T12:46:03;100386.31;;;21.01;67.12
3132;BME280;62090;52.330;9.104;2023-09-19T12:48:36;100382.88;;;21.00;66.08
3132;BME280;62090;52.330;9.104;2023-09-19T12:51:11;100364.22;;;20.86;65.54
3132;BME280;62090;52.330;9.104;2023-09-19T12:53:44;100378.81;;;20.90;64.22
3132;BME280;62090;52.330;9.104;2023-09-19T12:56:16;100387.25;;;20.98;66.47
3132;BME280;62090;52.330;9.104;2023-09-19T12:58:51;100355.50;;;20.90;66.04
3132;BME280;62090;52.330;9.104;2023-09-19T13:01:22;100387.63;;;21.20;66.91
3132;BME280;62090;52.330;9.104;2023-09-19T13:04:15;100363.97;;;20.97;65.72
3132;BME280;62090;52.330;9.104;2023-09-19T13:06:53;100379.16;;;21.12;64.89
3132;BME280;62090;52.330;9.104;2023-09-19T13:09:28;100376.47;;;21.17;63.83
3132;BME280;62090;52.330;9.104;2023-09-19T13:12:03;100359.56;;;21.00;64.92
3132;BME280;62090;52.330;9.104;2023-09-19T13:14:34;100365.06;;;21.24;63.99
3132;BME280;62090;52.330;9.104;2023-09-19T13:17:08;100350.91;;;21.01;65.54
3132;BME280;62090;52.330;9.104;2023-09-19T13:19:47;100358.66;;;21.03;64.67
3132;BME280;62090;52.330;9.104;2023-09-19T13:22:36;100345.59;;;21.06;62.85
3132;BME280;62090;52.330;9.104;2023-09-19T13:25:09;100314.06;;;20.89;63.76
3132;BME280;62090;52.330;9.104;2023-09-19T13:27:43;100350.81;;;21.04;64.86
3132;BME280;62090;52.330;9.104;2023-09-19T13:30:15;100327.31;;;21.12;66.61
3132;BME280;62090;52.330;9.104;2023-09-19T13:32:45;100317.38;;;20.95;67.41
3132;BME280;62090;52.330;9.104;2023-09-19T13:35:18;100351.00;;;21.32;66.72
3132;BME280;62090;52.330;9.104;2023-09-19T13:37:48;100337.34;;;21.26;64.75
3132;BME280;62090;52.330;9.104;2023-09-19T13:40:19;100344.66;;;21.44;65.46
3132;BME280;62090;52.330;9.104;2023-09-19T13:42:48;100337.00;;;21.39;64.25
3132;BME280;62090;52.330;9.104;2023-09-19T13:45:20;100290.34;;;21.05;64.37
3132;BME280;62090;52.330;9.104;2023-09-19T13:47:51;100337.16;;;21.33;61.86